createdAt,value
2022-12-18T00:01:42.712Z,51.25
2022-12-18T00:04:19.753Z,52.28
2022-12-18T00:09:15.151Z,52.08
2022-12-18T00:11:42.278Z,44.50
2022-12-18T00:14:11.550Z,51.20
2022-12-18T00:16:38.419Z,54.53
2022-12-18T00:19:06.340Z,49.97
2022-12-18T00:21:33.495Z,46.20
2022-12-18T00:24:01.348Z,45.47
2022-12-18T00:26:33.480Z,52.03
2022-12-18T00:29:07.839Z,48.15
2022-12-18T00:31:35.593Z,48.22
2022-12-18T00:34:03.053Z,49.65
2022-12-18T00:36:33.283Z,54.05
2022-12-18T00:39:01.688Z,49.38
2022-12-18T00:41:47.724Z,51.10
2022-12-18T00:44:16.679Z,50.08
2022-12-18T00:46:44.819Z,49.53
2022-12-18T00:49:11.900Z,46.38
2022-12-18T00:51:38.678Z,48.45
2022-12-18T00:54:05.827Z,50.53
2022-12-18T00:56:32.615Z,48.85
2022-12-18T00:58:59.399Z,51.55
2022-12-18T01:01:26.273Z,51.25
2022-12-18T01:03:53.048Z,47.15
2022-12-18T01:06:20.855Z,46.97
2022-12-18T01:08:47.616Z,46.85
2022-12-18T01:11:17.197Z,45.63
2022-12-18T01:13:44.503Z,46.33
2022-12-18T01:16:16.800Z,45.63
2022-12-18T01:18:43.829Z,46.75
2022-12-18T01:21:13.580Z,50.00
2022-12-18T01:23:40.969Z,47.25
2022-12-18T01:26:14.008Z,49.88
2022-12-18T01:28:41.288Z,45.83
2022-12-18T01:31:28.647Z,48.83
2022-12-18T01:33:56.603Z,48.90
2022-12-18T01:36:26.122Z,50.85
2022-12-18T01:38:54.133Z,50.85
2022-12-18T01:41:26.881Z,47.67
2022-12-18T01:43:56.453Z,48.05
2022-12-18T01:46:25.056Z,48.33
2022-12-18T01:48:57.957Z,45.17
2022-12-18T01:51:26.587Z,44.60
2022-12-18T01:53:53.272Z,47.78
2022-12-18T01:56:21.411Z,46.42
2022-12-18T01:59:02.806Z,46.78
2022-12-18T02:01:31.696Z,47.85
2022-12-18T02:04:21.744Z,43.50
2022-12-18T02:06:55.853Z,47.30
2022-12-18T02:09:31.072Z,42.65
2022-12-18T02:12:13.417Z,45.53
2022-12-18T02:15:06.440Z,50.40
2022-12-18T02:17:43.711Z,48.50
2022-12-18T02:20:36.859Z,45.55
2022-12-18T02:23:24.379Z,45.42
2022-12-18T02:25:58.417Z,43.20
2022-12-18T02:28:29.062Z,46.60
2022-12-18T02:31:08.884Z,48.67
2022-12-18T02:33:37.565Z,42.45
2022-12-18T02:36:06.698Z,45.13
2022-12-18T02:38:35.783Z,47.78
2022-12-18T02:41:08.944Z,45.97
2022-12-18T02:43:36.767Z,45.53
2022-12-18T02:46:26.873Z,43.72
2022-12-18T02:49:03.317Z,44.35
2022-12-18T02:51:40.647Z,45.17
2022-12-18T02:56:54.201Z,40.53
2022-12-18T02:59:46.448Z,43.15
2022-12-18T03:02:23.657Z,43.72
2022-12-18T03:05:13.087Z,44.08
2022-12-18T03:07:52.055Z,49.00
2022-12-18T03:10:25.783Z,41.22
2022-12-18T03:12:59.402Z,47.53
2022-12-18T03:15:31.382Z,44.20
2022-12-18T03:18:13.552Z,46.38
2022-12-18T03:20:45.324Z,44.38
2022-12-18T03:23:20.765Z,43.40
2022-12-18T03:25:53.526Z,42.38
2022-12-18T03:28:23.525Z,41.42
2022-12-18T03:30:59.413Z,43.17
2022-12-18T03:33:35.615Z,44.22
2022-12-18T03:36:02.717Z,42.30
2022-12-18T03:38:29.432Z,39.75
2022-12-18T03:41:23.132Z,42.22
2022-12-18T03:44:29.085Z,42.55
2022-12-18T03:47:15.034Z,38.60
2022-12-18T03:50:12.452Z,42.45
2022-12-18T03:52:57.764Z,39.75
2022-12-18T03:55:28.541Z,39.03
2022-12-18T03:58:02.783Z,37.28
2022-12-18T04:00:40.912Z,38.60
2022-12-18T04:03:13.387Z,37.92
2022-12-18T04:05:46.634Z,38.05
2022-12-18T04:08:15.205Z,36.50
2022-12-18T04:10:48.651Z,37.90
2022-12-18T04:13:29.155Z,34.67
2022-12-18T04:15:57.203Z,37.67
2022-12-18T04:18:24.945Z,36.95
2022-12-18T04:20:52.052Z,36.50
2022-12-18T04:23:18.938Z,35.83
2022-12-18T04:25:47.955Z,36.63
2022-12-18T04:28:20.829Z,38.50
2022-12-18T04:30:48.370Z,36.85
2022-12-18T04:33:18.963Z,36.40
2022-12-18T04:35:46.023Z,34.97
2022-12-18T04:38:14.152Z,37.33
2022-12-18T04:40:41.424Z,38.97
2022-12-18T04:43:16.229Z,37.40
2022-12-18T04:45:42.951Z,36.00
2022-12-18T04:48:09.939Z,36.28
2022-12-18T04:50:37.268Z,35.90
2022-12-18T04:53:04.163Z,35.55
2022-12-18T04:55:31.242Z,34.47
2022-12-18T04:57:58.066Z,34.88
2022-12-18T05:00:24.772Z,35.13
2022-12-18T05:02:52.552Z,35.83
2022-12-18T05:05:19.405Z,34.03
2022-12-18T05:07:46.338Z,35.95
2022-12-18T05:10:12.987Z,37.13
2022-12-18T05:15:31.345Z,32.80
2022-12-18T05:17:59.537Z,32.13
2022-12-18T05:20:26.676Z,32.42
2022-12-18T05:22:54.781Z,31.45
2022-12-18T05:25:22.054Z,36.10
2022-12-18T05:27:49.083Z,33.08
2022-12-18T05:30:16.776Z,35.00
2022-12-18T05:32:43.789Z,34.60
2022-12-18T05:35:11.767Z,33.85
2022-12-18T05:37:42.933Z,36.05
2022-12-18T05:40:11.864Z,34.42
2022-12-18T05:42:38.561Z,35.92
2022-12-18T05:45:06.092Z,33.47
2022-12-18T05:47:32.967Z,34.60
2022-12-18T05:49:59.599Z,34.88
2022-12-18T05:54:53.108Z,35.42
2022-12-18T05:57:19.856Z,35.40
2022-12-18T05:59:46.608Z,35.13
2022-12-18T06:02:13.372Z,32.08
2022-12-18T06:04:40.626Z,37.13
2022-12-18T06:07:07.465Z,33.63
2022-12-18T06:09:34.098Z,35.05
2022-12-18T06:12:00.892Z,36.30
2022-12-18T06:14:27.619Z,37.30
2022-12-18T06:16:54.400Z,33.40
2022-12-18T06:19:21.160Z,35.83
2022-12-18T06:21:47.915Z,36.17
2022-12-18T06:24:14.559Z,33.78
2022-12-18T06:26:41.300Z,33.20
2022-12-18T06:29:08.193Z,35.33
2022-12-18T06:31:35.155Z,33.45
2022-12-18T06:34:05.463Z,35.47
2022-12-18T06:36:32.944Z,34.17
2022-12-18T06:38:59.891Z,35.45
2022-12-18T06:41:26.818Z,33.05
2022-12-18T06:43:56.939Z,33.58
2022-12-18T06:46:26.351Z,33.70
2022-12-18T06:48:53.623Z,32.42
2022-12-18T06:51:22.106Z,35.28
2022-12-18T06:53:48.920Z,32.10
2022-12-18T06:56:15.795Z,30.73
2022-12-18T06:58:42.922Z,31.38
2022-12-18T07:01:12.118Z,31.70
2022-12-18T07:03:41.143Z,32.40
2022-12-18T07:06:15.776Z,32.97
2022-12-18T07:08:42.781Z,31.98
2022-12-18T07:11:09.467Z,32.88
2022-12-18T07:13:36.408Z,32.35
2022-12-18T07:16:16.043Z,33.65
2022-12-18T07:18:46.235Z,31.92
2022-12-18T07:21:15.456Z,32.45
2022-12-18T07:23:42.903Z,31.42
2022-12-18T07:26:12.768Z,29.98
2022-12-18T07:28:41.281Z,32.30
2022-12-18T07:31:10.736Z,34.10
2022-12-18T07:33:39.295Z,32.28
2022-12-18T07:36:08.420Z,32.22
2022-12-18T07:38:36.102Z,30.40
2022-12-18T07:41:04.500Z,32.70
2022-12-18T07:43:34.674Z,31.45
2022-12-18T07:46:01.502Z,33.45
2022-12-18T07:48:29.594Z,31.95
2022-12-18T07:51:05.062Z,33.50
2022-12-18T07:53:32.859Z,34.75
2022-12-18T07:56:25.917Z,32.17
2022-12-18T07:58:48.349Z,30.75
2022-12-18T08:01:15.943Z,32.67
2022-12-18T08:03:43.291Z,32.55
2022-12-18T08:06:10.803Z,32.97
2022-12-18T08:08:38.001Z,31.33
2022-12-18T08:11:04.853Z,31.48
2022-12-18T08:13:32.171Z,32.10
2022-12-18T08:16:00.688Z,33.65
2022-12-18T08:18:27.633Z,34.35
2022-12-18T08:20:56.215Z,32.38
2022-12-18T08:23:23.144Z,29.77
2022-12-18T08:25:50.834Z,29.10
2022-12-18T08:28:19.004Z,28.92
2022-12-18T08:30:45.681Z,32.80
2022-12-18T08:33:13.138Z,30.00
2022-12-18T08:35:45.616Z,30.42
2022-12-18T08:38:12.757Z,31.85
2022-12-18T08:40:39.516Z,30.95
2022-12-18T08:43:25.028Z,31.70
2022-12-18T08:45:51.787Z,30.65
2022-12-18T08:48:22.120Z,30.45
2022-12-18T08:50:59.841Z,34.22
2022-12-18T08:53:31.442Z,35.08
2022-12-18T08:56:00.808Z,36.78
2022-12-18T08:58:27.437Z,30.95
2022-12-18T09:00:54.230Z,32.85
2022-12-18T09:03:23.408Z,32.17
2022-12-18T09:05:51.061Z,37.17
2022-12-18T09:08:17.731Z,36.55
2022-12-18T09:10:49.467Z,34.17
2022-12-18T09:13:17.929Z,34.85
2022-12-18T09:15:46.775Z,34.72
2022-12-18T09:18:15.063Z,36.13
2022-12-18T09:20:42.112Z,34.83
2022-12-18T09:23:09.704Z,32.38
2022-12-18T09:25:37.524Z,35.38
2022-12-18T09:28:08.044Z,33.75
2022-12-18T09:30:35.101Z,34.55
2022-12-18T09:33:02.552Z,32.17
2022-12-18T09:35:29.300Z,31.73
2022-12-18T09:37:56.224Z,33.65
2022-12-18T09:40:26.671Z,35.17
2022-12-18T09:42:58.443Z,35.38
2022-12-18T09:45:25.530Z,35.10
2022-12-18T09:47:55.232Z,31.20
2022-12-18T09:50:28.150Z,34.67
2022-12-18T09:52:58.768Z,33.75
2022-12-18T09:55:46.876Z,35.30
2022-12-18T09:58:40.866Z,33.42
2022-12-18T10:01:15.340Z,33.72
2022-12-18T10:06:36.325Z,31.43
2022-12-18T10:09:07.690Z,34.33
2022-12-18T10:11:42.726Z,35.60
2022-12-18T10:14:27.978Z,33.55
2022-12-18T10:17:23.952Z,32.50
2022-12-18T10:20:11.497Z,36.08
2022-12-18T10:22:50.225Z,34.88
2022-12-18T10:25:47.450Z,34.45
2022-12-18T10:28:17.467Z,34.05
2022-12-18T10:30:44.904Z,32.95
2022-12-18T10:33:16.806Z,34.33
2022-12-18T10:35:44.455Z,33.65
2022-12-18T10:38:17.094Z,35.53
2022-12-18T10:40:55.473Z,34.15
2022-12-18T10:43:27.009Z,35.28
2022-12-18T10:46:09.355Z,32.38
2022-12-18T10:48:48.385Z,35.10
2022-12-18T10:51:38.183Z,36.90
2022-12-18T10:54:07.656Z,35.40
2022-12-18T10:56:38.861Z,35.25
2022-12-18T10:59:09.042Z,33.83
2022-12-18T11:01:49.687Z,35.63
2022-12-18T11:04:25.508Z,35.47
2022-12-18T11:06:58.301Z,35.00
2022-12-18T11:09:33.121Z,34.08
2022-12-18T11:12:02.778Z,39.20
2022-12-18T11:14:48.426Z,38.75
2022-12-18T11:17:26.432Z,37.95
2022-12-18T11:19:56.327Z,35.72
2022-12-18T11:22:28.709Z,34.13
2022-12-18T11:25:36.148Z,31.85
2022-12-18T11:28:06.160Z,32.95
2022-12-18T11:30:36.973Z,35.05
2022-12-18T11:33:20.224Z,34.60
2022-12-18T11:35:57.892Z,33.40
2022-12-18T11:38:29.324Z,34.92
2022-12-18T11:41:45.441Z,37.60
2022-12-18T11:44:19.412Z,34.10
2022-12-18T11:46:52.925Z,32.50
2022-12-18T11:49:29.508Z,34.53
2022-12-18T11:51:58.919Z,37.35
2022-12-18T11:54:25.581Z,33.55
2022-12-18T11:59:49.936Z,36.97
2022-12-18T12:02:35.656Z,39.13
2022-12-18T12:05:07.285Z,37.47
2022-12-18T12:08:12.347Z,35.95
2022-12-18T12:11:04.299Z,36.72
2022-12-18T12:13:58.271Z,34.47
2022-12-18T12:16:47.015Z,35.33
2022-12-18T12:19:34.012Z,38.58
2022-12-18T12:22:26.038Z,28.77
2022-12-18T12:25:22.405Z,37.15
2022-12-18T12:28:15.092Z,37.20
2022-12-18T12:30:47.820Z,36.78
2022-12-18T12:33:20.800Z,39.67
2022-12-18T12:36:05.113Z,38.95
2022-12-18T12:38:41.308Z,37.47
2022-12-18T12:41:32.711Z,39.67
2022-12-18T12:44:03.723Z,34.45
2022-12-18T12:46:33.539Z,34.20
2022-12-18T12:49:05.146Z,36.65
2022-12-18T12:51:38.213Z,34.38
2022-12-18T12:54:20.416Z,36.22
2022-12-18T12:57:00.623Z,34.60
2022-12-18T12:59:30.692Z,36.55
2022-12-18T13:02:06.141Z,36.85
2022-12-18T13:04:48.518Z,34.65
2022-12-18T13:07:42.591Z,34.58
2022-12-18T13:10:15.250Z,35.45
2022-12-18T13:13:11.143Z,33.20
2022-12-18T13:16:08.334Z,29.77
2022-12-18T13:18:35.934Z,30.43
2022-12-18T13:21:12.024Z,30.20
2022-12-18T13:23:41.421Z,29.33
2022-12-18T13:26:09.211Z,30.38
2022-12-18T13:28:42.105Z,30.00
2022-12-18T13:31:08.971Z,32.17
2022-12-18T13:34:09.413Z,33.15
2022-12-18T13:36:33.039Z,31.95
2022-12-18T13:39:16.455Z,30.50
2022-12-18T13:41:48.554Z,28.92
2022-12-18T13:44:39.977Z,25.80
2022-12-18T13:47:34.141Z,34.08
2022-12-18T13:50:02.740Z,36.47
2022-12-18T13:52:37.160Z,33.90
2022-12-18T13:55:15.615Z,35.15
2022-12-18T13:57:42.484Z,37.00
2022-12-18T14:00:24.527Z,36.60
2022-12-18T14:02:52.438Z,38.15
2022-12-18T14:05:27.640Z,39.58
2022-12-18T14:07:55.494Z,35.17
2022-12-18T14:15:45.256Z,37.35
2022-12-18T14:18:39.345Z,40.70
2022-12-18T14:21:07.637Z,36.53
2022-12-18T14:23:36.514Z,33.70
2022-12-18T14:26:23.129Z,36.33
2022-12-18T14:28:50.061Z,38.92
2022-12-18T14:31:22.306Z,37.45
2022-12-18T14:33:49.501Z,38.97
2022-12-18T14:36:22.232Z,35.65
2022-12-18T14:38:54.769Z,41.25
2022-12-18T14:41:22.645Z,39.85
2022-12-18T14:43:51.970Z,38.05
2022-12-18T14:46:33.822Z,38.60
2022-12-18T14:49:03.927Z,38.35
2022-12-18T14:51:34.212Z,39.15
2022-12-18T14:54:02.847Z,41.22
2022-12-18T14:56:35.777Z,34.95
2022-12-18T14:59:17.030Z,34.80
2022-12-18T15:01:58.109Z,34.25
2022-12-18T15:04:39.876Z,38.15
2022-12-18T15:07:15.700Z,35.92
2022-12-18T15:10:00.916Z,38.13
2022-12-18T15:12:35.465Z,34.13
2022-12-18T15:15:02.562Z,35.08
2022-12-18T15:17:29.566Z,35.67
2022-12-18T15:20:09.891Z,35.55
2022-12-18T15:22:38.534Z,35.17
2022-12-18T15:25:29.029Z,33.47
2022-12-18T15:27:55.787Z,33.33
2022-12-18T15:35:23.167Z,28.50
2022-12-18T15:37:51.356Z,32.67
2022-12-18T15:40:23.920Z,31.70
2022-12-18T15:43:13.662Z,33.13
2022-12-18T15:45:40.879Z,34.00
2022-12-18T15:48:20.905Z,33.45
2022-12-18T15:50:47.624Z,36.35
2022-12-18T15:53:14.473Z,37.13
2022-12-18T15:56:01.270Z,38.95
2022-12-18T15:58:28.336Z,42.17
2022-12-18T16:00:56.685Z,40.05
2022-12-18T16:03:23.426Z,39.70
2022-12-18T16:05:50.996Z,36.00
2022-12-18T16:08:17.636Z,41.38
2022-12-18T16:13:21.839Z,35.70
2022-12-18T16:15:48.742Z,36.40
2022-12-18T16:18:15.548Z,35.63
2022-12-18T16:20:42.531Z,35.13
2022-12-18T16:23:09.216Z,34.65
2022-12-18T16:25:35.974Z,38.70
2022-12-18T16:28:02.736Z,36.58
2022-12-18T16:30:37.946Z,39.45
2022-12-18T16:33:06.232Z,38.85
2022-12-18T16:35:34.907Z,38.85
2022-12-18T16:38:01.669Z,36.38
2022-12-18T16:40:28.527Z,36.25
2022-12-18T16:42:55.427Z,34.75
2022-12-18T16:45:22.227Z,37.17
2022-12-18T16:47:50.152Z,35.10
2022-12-18T16:50:16.898Z,40.42
2022-12-18T16:52:43.914Z,38.38
2022-12-18T16:55:10.808Z,41.33
2022-12-18T16:57:37.531Z,40.00
2022-12-18T17:00:06.196Z,39.20
2022-12-18T17:02:33.763Z,37.75
2022-12-18T17:05:00.790Z,42.80
2022-12-18T17:07:28.632Z,44.13
2022-12-18T17:09:55.955Z,38.08
2022-12-18T17:12:23.295Z,43.92
2022-12-18T17:14:50.600Z,45.00
2022-12-18T17:17:22.702Z,43.17
2022-12-18T17:19:51.859Z,41.95
2022-12-18T17:22:19.017Z,40.17
2022-12-18T17:24:46.861Z,37.03
2022-12-18T17:27:14.037Z,45.92
2022-12-18T17:29:46.774Z,40.15
2022-12-18T17:32:20.761Z,35.28
2022-12-18T17:34:48.016Z,38.42
2022-12-18T17:37:17.347Z,38.58
2022-12-18T17:39:44.820Z,36.08
2022-12-18T17:42:15.211Z,37.97
2022-12-18T17:44:43.195Z,39.78
2022-12-18T17:47:11.952Z,35.60
2022-12-18T17:49:39.013Z,33.58
2022-12-18T17:52:05.693Z,43.05
2022-12-18T17:54:33.067Z,39.88
2022-12-18T17:57:00.018Z,41.38
2022-12-18T17:59:26.768Z,40.05
2022-12-18T18:01:53.661Z,39.40
2022-12-18T18:04:20.657Z,40.78
2022-12-18T18:06:47.688Z,41.85
2022-12-18T18:09:17.015Z,38.78
2022-12-18T18:12:03.718Z,37.30
2022-12-18T18:14:31.531Z,38.63
2022-12-18T18:17:04.117Z,38.63
2022-12-18T18:19:31.796Z,37.10
2022-12-18T18:21:58.458Z,43.90
2022-12-18T18:24:25.918Z,38.97
2022-12-18T18:26:53.656Z,38.00
2022-12-18T18:29:23.727Z,37.15
2022-12-18T18:31:53.084Z,42.63
2022-12-18T18:34:25.269Z,43.90
2022-12-18T18:36:52.471Z,39.92
2022-12-18T18:39:19.884Z,38.60
2022-12-18T18:41:47.828Z,39.00
2022-12-18T18:44:16.333Z,39.00
2022-12-18T18:46:43.271Z,36.83
2022-12-18T18:49:10.684Z,39.63
2022-12-18T18:51:37.475Z,41.70
2022-12-18T18:54:04.314Z,38.30
2022-12-18T18:56:56.420Z,35.85
2022-12-18T18:59:19.184Z,38.50
2022-12-18T19:01:49.255Z,36.13
2022-12-18T19:04:16.121Z,36.60
2022-12-18T19:09:10.951Z,28.13
2022-12-18T19:11:57.340Z,26.88
2022-12-18T19:14:24.454Z,25.95
2022-12-18T19:16:51.209Z,23.30
2022-12-18T19:19:21.043Z,20.38
2022-12-18T19:21:48.356Z,22.63
2022-12-18T19:24:15.311Z,24.60
2022-12-18T19:26:42.152Z,21.65
2022-12-18T19:29:12.080Z,24.17
2022-12-18T19:31:40.393Z,25.13
2022-12-18T19:34:08.114Z,24.35
2022-12-18T19:36:38.065Z,22.95
2022-12-18T19:39:16.792Z,24.08
2022-12-18T19:41:44.495Z,20.92
2022-12-18T19:44:13.605Z,24.42
2022-12-18T19:46:42.312Z,22.75
2022-12-18T19:49:16.283Z,24.00
2022-12-18T19:51:45.296Z,24.40
2022-12-18T19:54:17.064Z,23.88
2022-12-18T19:56:45.211Z,26.63
2022-12-18T19:59:11.885Z,24.17
2022-12-18T20:04:06.023Z,26.95
2022-12-18T20:06:54.772Z,25.58
2022-12-18T20:09:22.013Z,24.25
2022-12-18T20:11:49.589Z,26.63
2022-12-18T20:14:23.082Z,27.15
2022-12-18T20:16:52.190Z,30.20
2022-12-18T20:19:19.319Z,29.48
2022-12-18T20:21:46.385Z,26.33
2022-12-18T20:24:13.200Z,27.00
2022-12-18T20:26:40.513Z,26.88
2022-12-18T20:29:07.194Z,28.73
2022-12-18T20:31:34.161Z,29.20
2022-12-18T20:34:02.668Z,26.40
2022-12-18T20:36:34.089Z,23.27
2022-12-18T20:39:05.057Z,23.15
2022-12-18T20:41:38.778Z,21.10
2022-12-18T20:44:22.305Z,19.20
2022-12-18T20:46:52.580Z,18.65
2022-12-18T20:49:19.305Z,19.10
2022-12-18T20:51:49.210Z,17.38
2022-12-18T20:54:16.142Z,19.20
2022-12-18T20:56:42.889Z,17.30
2022-12-18T20:59:09.672Z,17.20
2022-12-18T21:01:36.552Z,16.30
2022-12-18T21:04:05.490Z,21.17
2022-12-18T21:06:32.363Z,25.02
2022-12-18T21:08:59.051Z,22.33
2022-12-18T21:11:47.360Z,26.40
2022-12-18T21:14:20.229Z,23.70
2022-12-18T21:16:47.642Z,25.52
2022-12-18T21:19:20.536Z,25.35
2022-12-18T21:21:47.363Z,25.65
2022-12-18T21:24:14.615Z,25.30
2022-12-18T21:26:45.858Z,24.15
2022-12-18T21:29:22.590Z,22.60
2022-12-18T21:31:50.101Z,22.92
2022-12-18T21:34:20.804Z,23.02
2022-12-18T21:36:48.275Z,24.00
2022-12-18T21:39:15.885Z,25.60
2022-12-18T21:42:01.530Z,29.65
2022-12-18T21:44:28.859Z,27.33
2022-12-18T21:47:00.580Z,27.38
2022-12-18T21:49:33.439Z,28.13
2022-12-18T21:52:00.897Z,27.00
2022-12-18T21:54:29.711Z,28.35
2022-12-18T21:57:02.485Z,26.90
2022-12-18T21:59:35.496Z,27.10
2022-12-18T22:02:14.438Z,26.33
2022-12-18T22:04:42.689Z,26.38
2022-12-18T22:07:10.350Z,27.85
2022-12-18T22:09:38.322Z,26.17
2022-12-18T22:12:06.190Z,22.52
2022-12-18T22:14:32.866Z,20.75
2022-12-18T22:19:26.869Z,15.95
2022-12-18T22:21:54.486Z,12.60
2022-12-18T22:24:25.040Z,11.52
2022-12-18T22:26:54.173Z,10.38
2022-12-18T22:29:45.061Z,10.02
2022-12-18T22:32:16.815Z,17.30
2022-12-18T22:34:47.060Z,26.40
2022-12-18T22:39:40.630Z,28.08
2022-12-18T22:42:07.900Z,26.15
2022-12-18T22:44:34.713Z,28.38
2022-12-18T22:47:06.320Z,25.48
2022-12-18T22:49:35.315Z,27.20
2022-12-18T22:52:03.583Z,28.17
2022-12-18T22:54:30.508Z,28.00
2022-12-18T22:56:57.447Z,27.83
2022-12-18T22:59:24.695Z,27.55
2022-12-18T23:01:54.510Z,28.30
2022-12-18T23:04:30.155Z,27.67
2022-12-18T23:07:06.940Z,26.85
2022-12-18T23:09:34.137Z,27.50
2022-12-18T23:12:01.423Z,25.33
2022-12-18T23:14:29.010Z,23.98
2022-12-18T23:16:56.257Z,24.65
2022-12-18T23:19:23.807Z,21.25
2022-12-18T23:21:51.444Z,17.15
2022-12-18T23:24:18.511Z,15.88
2022-12-18T23:26:45.172Z,12.18
2022-12-18T23:31:39.425Z,22.75
2022-12-18T23:34:07.139Z,24.83
2022-12-18T23:36:37.660Z,27.23
2022-12-18T23:39:24.049Z,24.33
2022-12-18T23:42:00.279Z,24.08
2022-12-18T23:44:27.767Z,21.00
2022-12-18T23:46:55.049Z,15.95
2022-12-18T23:49:21.928Z,8.05
2022-12-18T23:51:49.031Z,13.77
2022-12-18T23:54:15.958Z,18.25
2022-12-18T23:56:42.753Z,17.15
2022-12-18T23:59:09.604Z,15.77
